地図

経路データ

SID SEASON NUMBER BASIN SUBBASIN NAME ISO_TIME NATURE LAT LON WMO_WIND WMO_PRES WMO_AGENCY TRACK_TYPE DIST2LAND LANDFALL IFLAG USA_AGENCY USA_ATCF_ID USA_LAT USA_LON USA_RECORD USA_STATUS USA_WIND USA_PRES USA_SSHS USA_R34_NE USA_R34_SE USA_R34_SW USA_R34_NW USA_R50_NE USA_R50_SE USA_R50_SW USA_R50_NW USA_R64_NE USA_R64_SE USA_R64_SW USA_R64_NW USA_POCI USA_ROCI USA_RMW USA_EYE TOKYO_LAT TOKYO_LON TOKYO_GRADE TOKYO_WIND TOKYO_PRES TOKYO_R50_DIR TOKYO_R50_LONG TOKYO_R50_SHORT TOKYO_R30_DIR TOKYO_R30_LONG TOKYO_R30_SHORT TOKYO_LAND CMA_LAT CMA_LON CMA_CAT CMA_WIND CMA_PRES HKO_LAT HKO_LON HKO_CAT HKO_WIND HKO_PRES NEWDELHI_LAT NEWDELHI_LON NEWDELHI_GRADE NEWDELHI_WIND NEWDELHI_PRES NEWDELHI_CI NEWDELHI_DP NEWDELHI_POCI REUNION_LAT REUNION_LON REUNION_TYPE REUNION_WIND REUNION_PRES REUNION_TNUM REUNION_CI REUNION_RMW REUNION_R34_NE REUNION_R34_SE REUNION_R34_SW REUNION_R34_NW REUNION_R50_NE REUNION_R50_SE REUNION_R50_SW REUNION_R50_NW REUNION_R64_NE REUNION_R64_SE REUNION_R64_SW REUNION_R64_NW BOM_LAT BOM_LON BOM_TYPE BOM_WIND BOM_PRES BOM_TNUM BOM_CI BOM_RMW BOM_R34_NE BOM_R34_SE BOM_R34_SW BOM_R34_NW BOM_R50_NE BOM_R50_SE BOM_R50_SW BOM_R50_NW BOM_R64_NE BOM_R64_SE BOM_R64_SW BOM_R64_NW BOM_ROCI BOM_POCI BOM_EYE BOM_POS_METHOD BOM_PRES_METHOD NADI_LAT NADI_LON NADI_CAT NADI_WIND NADI_PRES WELLINGTON_LAT WELLINGTON_LON WELLINGTON_WIND WELLINGTON_PRES DS824_LAT DS824_LON DS824_STAGE DS824_WIND DS824_PRES TD9636_LAT TD9636_LON TD9636_STAGE TD9636_WIND TD9636_PRES TD9635_LAT TD9635_LON TD9635_WIND TD9635_PRES TD9635_ROCI NEUMANN_LAT NEUMANN_LON NEUMANN_CLASS NEUMANN_WIND NEUMANN_PRES MLC_LAT MLC_LON MLC_CLASS MLC_WIND MLC_PRES USA_GUST BOM_GUST BOM_GUST_PER REUNION_GUST REUNION_GUST_PER USA_SEAHGT USA_SEARAD_NE USA_SEARAD_SE USA_SEARAD_SW USA_SEARAD_NW STORM_SPEED STORM_DIR
1965083S09130 1965 34 SI WA RUTH 1965-03-23 23:00:00 NR -8.70000 130.000 main 144 144 __________O___ -1 -8.70000 130.000 7 54 0
1965083S09130 1965 34 SI WA RUTH 1965-03-23 23:30:00 NR -9.14815 129.986 1002 bom main 172 172 ______O___P___ -1 -10.0000 130.000 1002 -8.72223 129.979 7 27 0
1965083S09130 1965 34 SI WA RUTH 1965-03-24 00:00:00 TS -9.15131 129.980 main 180 180 O_____P__OP___ jtwc_sh SH381965 -8.70000 130.000 -1 -10.0142 129.973 -8.70000 130.000 TC 25 -8.74444 129.959 7 3 229
1965083S09130 1965 34 SI WA RUTH 1965-03-24 03:00:00 TS -9.27481 129.834 main 204 204 P_____P__PP___ SH381965 -8.86002 129.838 -1 -10.0995 129.809 -8.86002 129.838 TC 25 -8.87659 129.835 7 4 223
1965083S09130 1965 34 SI WA RUTH 1965-03-24 06:00:00 TS -9.44915 129.704 main 219 219 O_____P__OP_O_ jtwc_sh SH381965 -9.00000 129.700 -1 -10.1850 129.645 -9.00000 129.700 TC 25 -9.00454 129.711 7 -10.2000 129.900 TC 25 1001 4 222
1965083S09130 1965 34 SI WA RUTH 1965-03-24 09:00:00 TS -9.55041 129.586 main 212 212 P_____P__PP_P_ SH381965 -9.10748 129.600 -1 -10.2710 129.481 -9.10748 129.600 TC 25 -9.12518 129.585 7 -10.2400 129.748 TC 25 1001 3 225
1965083S09130 1965 34 SI WA RUTH 1965-03-24 11:00:00 TS -9.63531 129.509 main 215 205 P_____P__PO_P_ SH381965 -9.16928 129.536 -1 -10.3286 129.373 -9.16928 129.536 TC 25 -9.20000 129.500 1 -10.2766 129.648 TC 25 1001 4 219
1965083S09130 1965 34 SI WA RUTH 1965-03-24 12:00:00 TS -9.68795 129.471 main 205 199 O_____P__OP_O_ jtwc_sh SH381965 -9.20000 129.500 -1 -10.3576 129.318 -9.20000 129.500 TC 25 -9.23544 129.457 1 -10.3000 129.600 TC 25 1001 4 231
1965083S09130 1965 34 SI WA RUTH 1965-03-24 15:00:00 TS -9.78329 129.327 main 204 200 P_____P__PP_P_ SH381965 -9.29999 129.365 -1 -10.4451 129.156 -9.29999 129.365 TC 25 -9.33574 129.324 1 -10.3925 129.458 TC 27 1000 4 237
1965083S09130 1965 34 SI WA RUTH 1965-03-24 18:00:00 TS -9.88096 129.166 main 200 200 O_____P__OP_O_ jtwc_sh SH381965 -9.40000 129.200 -1 -10.5337 128.994 -9.40000 129.200 TC 25 -9.43191 129.180 1 -10.5000 129.300 TC 30 1000 4 240
1965083S09130 1965 34 SI WA RUTH 1965-03-24 21:00:00 TS -9.97557 128.984 main 204 204 P_____P__PP_P_ SH381965 -9.49250 129.007 -1 -10.6238 128.833 -9.49250 129.007 TC 30 -9.53020 129.020 1 -10.6000 129.115 TC 30 1000 4 245
1965083S09130 1965 34 SI WA RUTH 1965-03-24 23:00:00 TS -10.0197 128.857 main 211 211 P_____P__PO_P_ SH381965 -9.56096 128.869 -1 -10.6847 128.727 -9.56096 128.869 TC 33 -9.60000 128.900 2 -10.6667 128.975 TC 30 1000 4 256
1965083S09130 1965 34 SI WA RUTH 1965-03-24 23:30:00 TS -10.0128 128.827 1000 bom main 219 219 P_____O__PP_P_ SH381965 -9.57998 128.835 -1 -10.7000 128.700 1000 -9.57998 128.835 TC 34 -9.61844 128.868 2 -10.6833 128.938 TC 30 1000 4 286
1965083S09130 1965 34 SI WA RUTH 1965-03-25 00:00:00 TS -10.0044 128.798 main 219 219 O_____P__OP_O_ jtwc_sh SH381965 -9.60000 128.800 -1 -10.7154 128.673 -9.60000 128.800 TC 35 -9.63708 128.836 2 -10.7000 128.900 TC 30 1000 4 248
1965083S09130 1965 34 SI WA RUTH 1965-03-25 03:00:00 TS -10.1009 128.602 main 226 226 P_____P__PP_P_ SH381965 -9.74997 128.607 -1 -10.8094 128.513 -9.74997 128.607 TC 30 -9.75333 128.629 2 -10.7925 128.650 TC 30 999 5 240
1965083S09130 1965 34 SI WA RUTH 1965-03-25 06:00:00 TS -10.2309 128.392 main 227 222 O_____P__OP_O_ jtwc_sh SH381965 -9.90000 128.400 -1 -10.9081 128.348 -9.90000 128.400 TC 25 -9.87707 128.403 2 -10.9000 128.400 TC 30 999 5 241
1965083S09130 1965 34 SI WA RUTH 1965-03-25 09:00:00 TS -10.3416 128.167 main 222 219 P_____P__PP_P_ SH381965 -9.99250 128.157 -1 -11.0138 128.173 -9.99250 128.157 TC 25 -10.0083 128.164 2 -11.0500 128.193 TC 32 998 5 243
1965083S09130 1965 34 SI WA RUTH 1965-03-25 11:00:00 TS -10.4193 128.012 main 219 219 P_____P__PO_P_ SH381965 -10.0579 127.986 -1 -11.0894 128.047 -10.0579 127.986 TC 25 -10.1000 128.000 1 -11.1531 128.064 TC 34 998 5 242
1965083S09130 1965 34 SI WA RUTH 1965-03-25 12:00:00 TS -10.4632 127.933 main 224 219 O_____P__OP_O_ jtwc_sh SH381965 -10.1000 127.900 -1 -11.1289 127.981 -10.1000 127.900 TC 25 -10.1503 127.919 1 -11.2000 128.000 TC 35 998 6 236
1965083S09130 1965 34 SI WA RUTH 1965-03-25 15:00:00 TS -10.6274 127.699 main 222 219 P_____P__PP_P_ SH381965 -10.3000 127.650 -1 -11.2558 127.768 -10.3000 127.650 TC 25 -10.3084 127.669 1 -11.3000 127.807 TC 35 997 6 235
1965083S09130 1965 34 SI WA RUTH 1965-03-25 18:00:00 TS -10.7940 127.457 main 229 224 O_____P__OP_O_ jtwc_sh SH381965 -10.5000 127.400 -1 -11.3969 127.528 -10.5000 127.400 TC 25 -10.4673 127.415 1 -11.4000 127.600 TC 35 997 6 239
1965083S09130 1965 34 SI WA RUTH 1965-03-25 21:00:00 TS -10.9248 127.203 main 226 226 P_____P__PP_P_ SH381965 -10.6150 127.142 -1 -11.5544 127.256 -10.6150 127.142 TC 25 -10.6145 127.164 1 -11.5350 127.372 TC 35 996 6 243
1965083S09130 1965 34 SI WA RUTH 1965-03-25 23:00:00 TS -11.0045 127.031 main 230 230 P_____P__PO_P_ SH381965 -10.6719 126.978 -1 -11.6698 127.053 -10.6719 126.978 TC 25 -10.7000 127.000 1 -11.6416 127.197 TC 35 996 6 245
1965083S09130 1965 34 SI WA RUTH 1965-03-25 23:30:00 TS -11.0240 126.988 996 bom main 230 230 P_____O__PP_P_ SH381965 -10.6858 126.938 -1 -11.7000 127.000 996 -10.6858 126.938 TC 25 -10.7161 126.962 1 -11.6704 127.150 TC 35 996 6 246
1965083S09130 1965 34 SI WA RUTH 1965-03-26 00:00:00 TS -11.0437 126.944 main 228 228 O_____P__OP_O_ jtwc_sh SH381965 -10.7000 126.900 -1 -11.7309 126.942 996 -10.7000 126.900 TC 25 -10.7313 126.924 1 -11.7000 127.100 TC 35 996 6 243
1965083S09130 1965 34 SI WA RUTH 1965-03-26 03:00:00 TS -11.1747 126.688 main 247 242 P_____P__PP_P_ SH381965 -10.8075 126.700 -1 -11.9260 126.578 996 -10.8075 126.700 TC 30 -10.8073 126.703 1 -11.8926 126.750 TC 35 996 6 243
1965083S09130 1965 34 SI WA RUTH 1965-03-26 06:00:00 TS -11.3003 126.433 main 242 242 O_____P__OP_O_ jtwc_sh SH381965 -10.9000 126.500 -1 -12.1311 126.214 996 -10.9000 126.500 TC 35 -10.8708 126.484 1 -12.1000 126.400 TC 35 996 6 244
1965083S09130 1965 34 SI WA RUTH 1965-03-26 07:00:00 TS -11.3364 126.347 996 bom main 234 234 P_____O__PP_P_ SH381965 -10.9198 126.422 -1 -12.2000 126.100 996 -10.9198 126.422 TC 39 -10.8924 126.410 1 -12.1666 126.303 TC 35 996 5 248
1965083S09130 1965 34 SI WA RUTH 1965-03-26 09:00:00 TS -11.4033 126.174 main 234 226 P_____P__PP_P_ SH381965 -10.9500 126.257 -1 -12.3290 125.888 -10.9500 126.257 TC 50 -10.9406 126.259 1 -12.2999 126.127 TC 35 996 5 248
1965083S09130 1965 34 SI WA RUTH 1965-03-26 11:00:00 TS -11.4718 126.004 main 226 219 P_____P__PO_P_ SH381965 -10.9802 126.086 -1 -12.4565 125.692 -10.9802 126.086 TC 60 -11.0000 126.100 4 -12.4333 125.972 TC 35 996 5 247
1965083S09130 1965 34 SI WA RUTH 1965-03-26 12:00:00 TS -11.5082 125.918 main 219 211 O_____P__OP_O_ jtwc_sh SH381965 -11.0000 126.000 -1 -12.5201 125.601 -11.0000 126.000 TC 65 -11.0289 126.008 4 -12.5000 125.900 TC 35 996 5 245
1965083S09130 1965 34 SI WA RUTH 1965-03-26 15:00:00 TS -11.6248 125.673 main 213 206 P_____P__PP_P_ SH381965 -11.0700 125.757 -1 -12.7117 125.351 -11.0700 125.757 TC 50 -11.1276 125.716 4 -12.6999 125.700 TC 35 996 6 241
1965083S09130 1965 34 SI WA RUTH 1965-03-26 18:00:00 TS -11.7777 125.427 main 214 209 O_____P__OP_O_ jtwc_sh SH381965 -11.2000 125.500 -1 -12.9073 125.140 -11.2000 125.500 TC 35 -11.2586 125.424 4 -12.9000 125.500 TC 35 996 6 235
1965083S09130 1965 34 SI WA RUTH 1965-03-26 21:00:00 TS -11.9803 125.151 main 226 222 P_____P__PP_P_ SH381965 -11.4126 125.185 -1 -13.1107 124.967 -11.4126 125.185 TC 35 -11.4408 125.154 4 -13.0926 125.228 TC 35 996 7 230
1965083S09130 1965 34 SI WA RUTH 1965-03-26 23:00:00 TS -12.1454 124.982 main 229 229 P_____P__PO_P_ SH381965 -11.5974 124.986 -1 -13.2523 124.875 -11.5974 124.986 TC 35 -11.6000 125.000 2 -13.2277 125.063 TC 35 996 8 218
1965083S09130 1965 34 SI WA RUTH 1965-03-27 00:00:00 TS -12.2790 124.910 main 230 221 O_____P__OP_O_ jtwc_sh SH381965 -11.7000 124.900 -1 -13.3253 124.835 -11.7000 124.900 TC 35 -11.6936 124.930 2 -13.3000 125.000 TC 35 996 9 205
1965083S09130 1965 34 SI WA RUTH 1965-03-27 01:00:00 TS -12.4109 124.853 972 bom main 221 209 P_____O__PP_P_ SH381965 -11.8026 124.828 -1 -13.4000 124.800 972 -11.8026 124.828 TC 35 -11.7959 124.864 2 -13.3776 124.958 TC 35 996 8 201
1965083S09130 1965 34 SI WA RUTH 1965-03-27 03:00:00 TS -12.6438 124.765 main 209 175 P_____P__PP_P_ SH381965 -12.0275 124.712 -1 -13.5425 124.742 -12.0275 124.712 TC 35 -12.0234 124.748 2 -13.5425 124.912 TC 35 996 7 196
1965083S09130 1965 34 SI WA RUTH 1965-03-27 06:00:00 TS -12.9946 124.686 main 175 155 O_____P__OP_O_ jtwc_sh SH381965 -12.4000 124.600 -1 -13.7637 124.695 -12.4000 124.600 TC 35 -12.4074 124.613 2 -13.8000 124.900 TC 35 996 7 191
1965083S09130 1965 34 SI WA RUTH 1965-03-27 09:00:00 TS -13.3246 124.629 main 155 139 P_____P__PP_P_ SH381965 -12.7850 124.513 -1 -13.9971 124.685 -12.7850 124.513 TC 35 -12.8206 124.528 2 -14.0500 124.892 TC 35 996 7 187
1965083S09130 1965 34 SI WA RUTH 1965-03-27 11:00:00 TS -13.5539 124.616 main 129 119 P_____P__PO_P_ SH381965 -13.0583 124.494 -1 -14.1614 124.694 -13.0583 124.494 TC 35 -13.1000 124.500 2 -14.2167 124.897 TC 35 996 7 182
1965083S09130 1965 34 SI WA RUTH 1965-03-27 12:00:00 TS -13.6715 124.620 main 119 86 O_____P__OP_O_ jtwc_sh SH381965 -13.2000 124.500 -1 -14.2466 124.702 -13.2000 124.500 TC 35 -13.2422 124.509 2 -14.3000 124.900 TC 35 996 7 174
1965083S09130 1965 34 SI WA RUTH 1965-03-27 15:00:00 TS -14.0408 124.669 main 86 58 P_____P__PP_P_ SH381965 -13.6575 124.592 -1 -14.5158 124.733 -13.6575 124.592 TC 30 -13.6796 124.581 2 -14.5425 124.900 TC 35 996 7 172
1965083S09130 1965 34 SI WA RUTH 1965-03-27 18:00:00 TS -14.4074 124.726 main 58 43 O_____P__OP_O_ jtwc_sh SH381965 -14.1000 124.700 -1 -14.8086 124.767 -14.1000 124.700 TC 25 -14.1062 124.673 2 -14.8000 124.900 TC 35 997 7 174
1965083S09130 1965 34 SI WA RUTH 1965-03-27 21:00:00 TS -14.7542 124.754 main 39 35 P_____P__PP_P_ SH381965 -14.4874 124.752 -1 -15.1286 124.794 -14.4874 124.752 TC 25 -14.4877 124.722 2 -15.1075 124.937 TC 35 997 7 177
1965083S09130 1965 34 SI WA RUTH 1965-03-27 22:30:00 TS -14.9134 124.742 972 bom main 35 35 P_____O__PP_P_ SH381965 -14.6546 124.744 -1 -15.3000 124.800 972 -14.6546 124.744 TC 25 -14.6508 124.711 2 -15.2603 124.936 TC 35 997 6 0
1965083S09130 1965 34 SI WA RUTH 1965-03-27 23:00:00 TS -14.9642 124.734 main 24 24 P_____P__PO_P_ SH381965 -14.7057 124.734 -1 -15.3635 124.809 977 -14.7057 124.734 TC 25 -14.7000 124.700 1 -15.3088 124.928 TC 35 997 6 197
1965083S09130 1965 34 SI WA RUTH 1965-03-28 00:00:00 TS -15.0599 124.706 main 15 15 O_____P__OP_O_ jtwc_sh SH381965 -14.8000 124.700 -1 -15.4883 124.818 987 -14.8000 124.700 TC 25 -14.7896 124.662 1 -15.4000 124.900 TC 35 998 6 201
1965083S09130 1965 34 SI WA RUTH 1965-03-28 01:00:00 TS -15.1493 124.662 998 bom main 15 10 P_____O__PP_P_ SH381965 -14.8917 124.653 -1 -15.6000 124.800 998 -14.8917 124.653 TC 25 -14.8701 124.612 1 -15.4781 124.848 TC 35 998 6 217
1965083S09130 1965 34 SI WA RUTH 1965-03-28 03:00:00 TS -15.2972 124.518 main 24 22 P_____P__PP_P_ SH381965 -15.0450 124.510 -1 -15.7463 124.616 -15.0450 124.510 TC 25 -15.0059 124.480 1 -15.6150 124.695 TC 35 998 6 235
1965083S09130 1965 34 SI WA RUTH 1965-03-28 06:00:00 TS -15.4599 124.209 main 24 24 O_____P__OP_O_ jtwc_sh SH381965 -15.2000 124.200 -1 -15.8636 124.153 -15.2000 124.200 TC 25 -15.1557 124.208 1 -15.8000 124.400 TC 35 998 7 243
1965083S09130 1965 34 SI WA RUTH 1965-03-28 07:00:00 TS -15.5041 124.097 bom main 34 34 P_____O__PP_P_ SH381965 -15.2338 124.086 -1 -15.9000 124.000 -15.2338 124.086 TC 25 -15.1935 124.101 1 -15.8667 124.306 TC 35 998 7 249
1965083S09130 1965 34 SI WA RUTH 1965-03-28 09:00:00 TS -15.5843 123.874 main 53 53 P_____P__PP_P_ SH381965 -15.2725 123.830 -1 -16.0226 123.830 -15.2725 123.830 TC 25 -15.2545 123.863 1 -16.0000 124.107 TC 35 998 7 251
1965083S09130 1965 34 SI WA RUTH 1965-03-28 11:00:00 TS -15.6545 123.637 main 56 56 P_____P__PO_P_ SH381965 -15.2912 123.547 -1 -16.1559 123.695 -15.2912 123.547 TC 25 -15.3000 123.600 1 -16.1333 123.903 TC 35 998 7 253
1965083S09130 1965 34 SI WA RUTH 1965-03-28 12:00:00 TS -15.6900 123.515 main 59 59 O_____P__OP_O_ jtwc_sh SH381965 -15.3000 123.400 -1 -16.2248 123.631 -15.3000 123.400 TC 25 -15.3277 123.466 1 -16.2000 123.800 TC 35 998 8 253
1965083S09130 1965 34 SI WA RUTH 1965-03-28 15:00:00 TS -15.8062 123.136 main 77 77 P_____P__PP_P_ SH381965 -15.3575 122.958 -1 -16.4326 123.402 -15.3575 122.958 TC 25 -15.3841 123.019 1 -16.4074 123.515 TC 35 998 8 253
1965083S09130 1965 34 SI WA RUTH 1965-03-28 16:00:00 TS -15.8419 123.000 992 bom main 78 67 P_____O__PP_P_ SH381965 -15.3745 122.805 -1 -16.5000 123.300 992 4 -15.3745 122.805 TC 25 -15.3952 122.859 1 -16.4745 123.416 TC 35 998 9 256
1965083S09130 1965 34 SI WA RUTH 1965-03-28 18:00:00 TS -15.9067 122.707 main 70 70 O_____P__OP_O_ jtwc_sh SH381965 -15.4000 122.500 -1 -16.6364 122.984 993 -15.4000 122.500 TC 25 -15.4078 122.528 1 -16.6000 123.200 TC 35 998 9 259
1965083S09130 1965 34 SI WA RUTH 1965-03-28 21:00:00 TS -15.9840 122.256 main 85 85 P_____P__PP_P_ SH381965 -15.4149 122.050 -1 -16.8233 122.492 995 -15.4149 122.050 TC 30 -15.4080 122.026 1 -16.7649 122.837 TC 35 998 9 261
1965083S09130 1965 34 SI WA RUTH 1965-03-28 22:30:00 TS -16.0124 122.033 bom main 108 108 P_____I__PP_P_ SH381965 -15.4112 121.825 -1 -16.9000 122.300 996 -15.4112 121.825 TC 32 -15.4024 121.780 1 -16.8361 122.630 TC 35 998 9 263
1965083S09130 1965 34 SI WA RUTH 1965-03-28 23:00:00 TS -16.0204 121.960 main 108 108 P_____P__PO_P_ SH381965 -15.4083 121.750 -1 -16.9224 122.256 996 -15.4083 121.750 TC 33 -15.4000 121.700 2 -16.8582 122.556 TC 35 998 8 264
1965083S09130 1965 34 SI WA RUTH 1965-03-29 00:00:00 TS -16.0339 121.818 main 123 123 O_____P__OP_O_ jtwc_sh SH381965 -15.4000 121.600 -1 -16.9630 122.178 997 -15.4000 121.600 TC 35 -15.3945 121.554 2 -16.9000 122.400 TC 35 998 8 265
1965083S09130 1965 34 SI WA RUTH 1965-03-29 01:00:00 TS -16.0442 121.674 998 bom main 132 132 P_____O__PP_P_ SH381965 -15.3864 121.447 -1 -17.0000 122.100 998 -15.3864 121.447 TC 33 -15.3865 121.410 2 -16.9416 122.242 TC 35 998 9 267
1965083S09130 1965 34 SI WA RUTH 1965-03-29 03:00:00 TS -16.0578 121.370 main 147 147 P_____P__PP_P_ SH381965 -15.3500 121.142 -1 -17.0725 121.874 -15.3500 121.142 TC 30 -15.3656 121.128 2 -17.0148 121.895 TC 35 998 9 268
1965083S09130 1965 34 SI WA RUTH 1965-03-29 06:00:00 TS -16.0730 120.889 main 186 186 O_____P__OP_O_ jtwc_sh SH381965 -15.3000 120.700 -1 -17.1669 121.411 -15.3000 120.700 TC 25 -15.3303 120.711 2 -17.1000 121.300 TC 35 998 9 268
1965083S09130 1965 34 SI WA RUTH 1965-03-29 09:00:00 TS -16.0969 120.391 main 231 231 P_____P__PP_P_ SH381965 -15.2848 120.300 -1 -17.2460 120.822 -15.2848 120.300 TC 25 -15.3044 120.289 2 -17.1575 120.622 TC 35 998 10 267
1965083S09130 1965 34 SI WA RUTH 1965-03-29 11:00:00 TS -16.1186 120.045 main 269 269 P_____P__PO_P_ SH381965 -15.2916 120.036 -1 -17.2912 120.370 -15.2916 120.036 TC 25 -15.3000 120.000 1 -17.1859 120.141 TC 35 998 10 266
1965083S09130 1965 34 SI WA RUTH 1965-03-29 12:00:00 TS -16.1316 119.869 main 279 279 O_____P__OP_O_ jtwc_sh SH381965 -15.3000 119.900 -1 -17.3117 120.129 -15.3000 119.900 TC 25 -15.3010 119.876 1 -17.2000 119.900 TC 35 998 10 265
1965083S09130 1965 34 SI WA RUTH 1965-03-29 15:00:00 TS -16.1781 119.332 main 332 332 P_____P__PP_P_ SH381965 -15.3423 119.480 -1 -17.3663 119.355 -15.3423 119.480 TC 25 -15.3186 119.506 1 -17.2423 119.200 TC 32 998 11 265
1965083S09130 1965 34 SI WA RUTH 1965-03-29 18:00:00 TS -16.2346 118.750 main 382 382 O_____P__OP_O_ jtwc_sh SH381965 -15.4000 119.000 -1 -17.4119 118.526 -15.4000 119.000 TC 25 -15.3615 119.087 1 -17.3000 118.500 TC 30 999 12 264
1965083S09130 1965 34 SI WA RUTH 1965-03-29 21:00:00 TS -16.2905 118.130 main 438 438 P_____P__PP_P_ SH381965 -15.4344 118.482 -1 -17.4515 117.663 -15.4344 118.482 TC 25 -15.4338 118.552 1 -17.4071 117.815 TC 30 999 13 265
1965083S09130 1965 34 SI WA RUTH 1965-03-29 23:00:00 TS -16.3351 117.662 main 450 447 P_____P__PO_P_ SH381965 -15.4715 118.053 -1 -17.4759 117.080 -15.4715 118.053 TC 25 -15.5000 118.100 1 -17.4752 117.345 TC 30 999 14 264
1965083S09130 1965 34 SI WA RUTH 1965-03-30 00:00:00 TS -16.3609 117.402 main 451 451 O_____P__OP_O_ jtwc_sh SH381965 -15.5000 117.800 -1 -17.4879 116.789 -15.5000 117.800 TC 25 -15.5385 117.824 1 -17.5000 117.100 TC 30 999 16 264
1965083S09130 1965 34 SI WA RUTH 1965-03-30 01:00:00 TS -16.3893 117.125 1000 bom main 459 459 P_____O__PP_P_ SH381965 -15.5386 117.518 -1 -17.5000 116.500 1000 -15.5386 117.518 TC 25 -15.5811 117.524 1 -17.5087 116.845 TC 30 999 17 264
1965083S09130 1965 34 SI WA RUTH 1965-03-30 03:00:00 TS -16.4544 116.532 main 459 459 P_____P__PP_P_ SH381965 -15.6350 116.875 -1 -17.5359 115.970 -15.6350 116.875 TC 25 -15.6762 116.866 1 -17.5074 116.315 TC 30 999 18 263
1965083S09130 1965 34 SI WA RUTH 1965-03-30 06:00:00 TS -16.5611 115.573 main 462 462 O_____P__OP_O_ jtwc_sh SH381965 -15.8000 115.800 -1 -17.5871 115.155 -15.8000 115.800 TC 25 -15.8340 115.779 1 -17.5000 115.500 TC 30 1000 19 263
1965083S09130 1965 34 SI WA RUTH 1965-03-30 09:00:00 TS -16.6676 114.597 main 489 489 P_____P__PP_P_ SH381965 -15.9498 114.707 -1 -17.6344 114.324 -15.9498 114.707 TC 25 -15.9963 114.643 1 -17.5422 114.700 TC 30 1000 19 264
1965083S09130 1965 34 SI WA RUTH 1965-03-30 11:00:00 TS -16.7388 113.941 main 526 523 P_____P__PO_P_ SH381965 -16.0499 113.966 -1 -17.6635 113.765 -16.0499 113.966 TC 25 -16.1000 113.900 1 -17.5805 114.167 TC 30 1000 19 264
1965083S09130 1965 34 SI WA RUTH 1965-03-30 12:00:00 TS -16.7723 113.617 main 534 534 O_____P__OP_O_ jtwc_sh SH381965 -16.1000 113.600 -1 -17.6773 113.485 -16.1000 113.600 TC 25 -16.1386 113.550 1 -17.6000 113.900 TC 30 1000 19 264
1965083S09130 1965 34 SI WA RUTH 1965-03-30 15:00:00 TS -16.8693 112.657 main 575 575 P_____P__PP_P_ SH381965 -16.2497 112.520 -1 -17.7150 112.649 -16.2497 112.520 TC 25 -16.2470 112.510 1 -17.6496 113.107 TC 30 1000 18 264
1965083S09130 1965 34 SI WA RUTH 1965-03-30 18:00:00 TS -16.9656 111.727 main 598 598 O_____P__OP_O_ jtwc_sh SH381965 -16.4000 111.500 -1 -17.7472 111.825 -16.4000 111.500 TC 25 -16.3583 111.509 1 -17.7000 112.300 TC 30 1000 18 265
1965083S09130 1965 34 SI WA RUTH 1965-03-30 21:00:00 TS -17.0312 110.813 main 642 642 P_____P__PP_P_ SH381965 -16.5347 110.540 -1 -17.7737 111.021 -16.5347 110.540 TC 25 -16.4907 110.573 1 -17.7576 111.428 TC 30 1000 17 266
1965083S09130 1965 34 SI WA RUTH 1965-03-30 23:00:00 TS -17.0753 110.238 main 668 668 P_____P__PO_P_ SH381965 -16.6385 109.963 -1 -17.7882 110.502 -16.6385 109.963 TC 25 -16.6000 110.000 1 -17.7891 110.863 TC 30 1000 16 266
1965083S09130 1965 34 SI WA RUTH 1965-03-31 00:00:00 TS -17.0908 109.962 main 681 681 O_____P__OP_O_ jtwc_sh SH381965 -16.7000 109.700 -1 -17.7944 110.249 -16.7000 109.700 TC 25 -16.6729 109.737 1 -17.8000 110.600 TC 30 1000 15 266
1965083S09130 1965 34 SI WA RUTH 1965-03-31 01:00:00 TS -17.1120 109.702 1000 bom main 700 700 P_____O__PP_P_ SH381965 -16.7716 109.455 -1 -17.8000 110.000 1000 -16.7716 109.455 TC 25 -16.7520 109.487 1 -17.8054 110.360 TC 30 1000 14 259
1965083S09130 1965 34 SI WA RUTH 1965-03-31 03:00:00 TS -17.2238 109.248 main 727 726 P_____P__PP_P_ SH381965 -16.9344 109.012 -1 -17.8093 109.516 -16.9344 109.012 TC 25 -16.9234 109.017 1 -17.8070 109.920 TC 30 1000 13 254
1965083S09130 1965 34 SI WA RUTH 1965-03-31 06:00:00 TS -17.4023 108.614 main 756 756 O_____P__OP_O_ jtwc_sh SH381965 -17.2000 108.400 -1 -17.8190 108.823 -17.2000 108.400 TC 25 -17.1950 108.362 1 -17.8000 109.300 TC 30 1000 13 254
1965083S09130 1965 34 SI WA RUTH 1965-03-31 09:00:00 TS -17.5822 107.972 main 790 790 P_____P__PP_P_ SH381965 -17.4721 107.765 -1 -17.8243 108.163 -17.4721 107.765 TC 30 -17.4529 107.730 1 -17.7999 108.643 TC 27 1000 13 254
1965083S09130 1965 34 SI WA RUTH 1965-03-31 11:00:00 TS -17.6877 107.539 main 826 826 P_____P__PO_P_ SH381965 -17.6336 107.328 -1 -17.8256 107.740 -17.6336 107.328 TC 33 -17.6000 107.300 2 -17.7999 108.211 TC 25 1000 13 257
1965083S09130 1965 34 SI WA RUTH 1965-03-31 12:00:00 TS -17.7305 107.315 main 843 843 O_____P__OP_O_ jtwc_sh SH381965 -17.7000 107.100 -1 -17.8257 107.533 -17.7000 107.100 TC 35 -17.6571 107.057 2 -17.8000 108.000 TC 25 1001 13 262
1965083S09130 1965 34 SI WA RUTH 1965-03-31 15:00:00 TS -17.8184 106.619 main 899 899 P_____P__PP_P_ SH381965 -17.8300 106.357 -1 -17.8239 106.926 -17.8300 106.357 TC 30 -17.7971 106.316 2 -17.7997 107.400 TC 25 1001 13 264
1965083S09130 1965 34 SI WA RUTH 1965-03-31 18:00:00 TS -17.8694 105.918 main 957 957 O_____P__OP_O_ jtwc_sh SH381965 -17.9000 105.600 -1 -17.8193 106.336 -17.9000 105.600 TC 25 -17.8971 105.573 2 -17.8000 106.800 TC 25 1002 14 266
1965083S09130 1965 34 SI WA RUTH 1965-03-31 21:00:00 TS -17.9132 105.194 main 1021 1021 P_____P__PP_P_ SH381965 -17.9573 104.877 -1 -17.8123 105.759 -17.9573 104.877 TC 25 -17.9663 104.854 2 -17.8005 106.163 TC 25 1002 14 266
1965083S09130 1965 34 SI WA RUTH 1965-03-31 23:00:00 TS -17.9453 104.677 main 1066 1066 P_____P__PO_P_ SH381965 -17.9859 104.419 -1 -17.8066 105.379 -17.9859 104.419 TC 25 -18.0000 104.400 1 -17.8004 105.722 TC 25 1002 16 266
1965083S09130 1965 34 SI WA RUTH 1965-04-01 00:00:00 TS -17.9731 104.370 main 1088 1088 O_____P__OP_O_ jtwc_sh SH381965 -18.0000 104.200 -1 -17.8034 105.189 -18.0000 104.200 TC 25 -18.0204 104.186 1 -17.8000 105.500 TC 25 1003 18 264
1965083S09130 1965 34 SI WA RUTH 1965-04-01 01:00:00 TS -18.0107 104.044 1004 bom main 1125 1125 P_____O__PP___ SH381965 -18.0191 103.986 -1 -17.8000 105.000 1004 -18.0191 103.986 TC 25 -18.0382 103.977 1 TC 15 263
1965083S09130 1965 34 SI WA RUTH 1965-04-01 03:00:00 TS -18.0596 103.577 main 1157 1157 P________PP___ SH381965 -18.0572 103.578 -1 -18.0572 103.578 TC 25 -18.0667 103.575 1 TC 12 265
1965083S09130 1965 34 SI WA RUTH 1965-04-01 06:00:00 TS -18.0982 103.001 main 1213 1213 O________OP___ jtwc_sh SH381965 -18.1000 103.000 -1 -18.1000 103.000 TC 25 -18.0929 103.003 1 11 268
1965083S09130 1965 34 SI WA RUTH 1965-04-01 09:00:00 TS -18.1060 102.440 main 1270 1270 P________PP___ SH381965 -18.1073 102.435 -1 -18.1073 102.435 TC 25 -18.1020 102.456 1 10 270
1965083S09130 1965 34 SI WA RUTH 1965-04-01 11:00:00 TS -18.1019 102.081 main 1285 1285 P________PO___ SH381965 -18.1025 102.075 -1 -18.1025 102.075 TC 25 -18.1000 102.100 1 10 271
1965083S09130 1965 34 SI WA RUTH 1965-04-01 12:00:00 TS -18.1013 101.909 main 1293 1293 O________OP___ jtwc_sh SH381965 -18.1000 101.900 -1 -18.1000 101.900 TC 25 -18.1051 101.936 1 10 269
1965083S09130 1965 34 SI WA RUTH 1965-04-01 15:00:00 TS -18.1086 101.415 main 1314 1314 P________PP___ SH381965 -18.1073 101.400 -1 -18.1073 101.400 TC 25 -18.1126 101.461 1 9 270
1965083S09130 1965 34 SI WA RUTH 1965-04-01 18:00:00 TS -18.0999 100.919 main 1338 1338 O________OP___ jtwc_sh SH381965 -18.1000 100.900 -1 -18.1000 100.900 TC 25 -18.0998 100.974 1 10 272
1965083S09130 1965 34 SI WA RUTH 1965-04-01 21:00:00 TS -18.0676 100.408 main 1363 1363 P________PP___ SH381965 -18.0719 100.403 -1 -18.0719 100.403 TC 25 -18.0544 100.425 1 10 275
1965083S09130 1965 34 SI WA RUTH 1965-04-01 23:00:00 TS -18.0228 100.015 main 1374 1374 P________PO___ SH381965 -18.0304 100.020 -1 -18.0304 100.020 TC 25 -18.0000 100.000 7 12 277
1965083S09130 1965 34 SI WA RUTH 1965-04-02 00:00:00 TS -17.9923 99.7904 main 1384 1384 O________OP___ jtwc_sh SH381965 -18.0000 99.8000 -1 -18.0000 99.8000 TC 25 -17.9692 99.7614 7 15 279
1965083S09130 1965 34 SI WA RUTH 1965-04-02 03:00:00 TS -17.8716 99.0004 main 1413 1408 P________PP___ SH381965 -17.8799 99.0101 -1 -17.8799 99.0101 TC 25 -17.8466 98.9711 7 16 280
1965083S09130 1965 34 SI WA RUTH 1965-04-02 06:00:00 TS -17.6947 98.0978 main 1443 1443 O________OP___ jtwc_sh SH381965 -17.7000 98.1000 -1 -17.7000 98.1000 TC 25 -17.6788 98.0910 7 18 283
1965083S09130 1965 34 SI WA RUTH 1965-04-02 09:00:00 TS -17.4762 97.1724 main 1479 1477 P________PP___ SH381965 -17.4795 97.1802 -1 -17.4795 97.1802 TC 25 -17.4662 97.1489 7 19 285
1965083S09130 1965 34 SI WA RUTH 1965-04-02 11:00:00 TS -17.2998 96.5251 main 1508 1508 P________PO___ SH381965 -17.2997 96.5335 -1 -17.2997 96.5335 TC 25 -17.3000 96.5000 7 20 286
1965083S09130 1965 34 SI WA RUTH 1965-04-02 12:00:00 TS -17.1985 96.1901 main 1520 1520 O________OP___ jtwc_sh SH381965 -17.2000 96.2000 -1 -17.2000 96.2000 TC 25 -17.1938 96.1605 7 21 289
1965083S09130 1965 34 SI WA RUTH 1965-04-02 15:00:00 TS -16.8462 95.1330 main 1568 1568 P________PP___ SH381965 -16.8500 95.1422 -1 -16.8500 95.1422 TC 25 -16.8346 95.1054 7 21 289
1965083S09130 1965 34 SI WA RUTH 1965-04-02 18:00:00 TS -16.4911 94.0882 main 1624 1624 O________OP___ jtwc_sh SH381965 -16.5000 94.1000 -1 -16.5000 94.1000 TC 25 -16.4642 94.0527 7 20 289
1965083S09130 1965 34 SI WA RUTH 1965-04-02 21:00:00 TS -16.1850 93.1182 main 1686 1686 P________PP___ SH381965 -16.1973 93.1326 -1 -16.1973 93.1326 TC 25 -16.1480 93.0751 7 19 287
1965083S09130 1965 34 SI WA RUTH 1965-04-02 23:00:00 TS -16.0371 92.5434 main 1717 1717 P________PO___ SH381965 -16.0495 92.5579 -1 -16.0495 92.5579 TC 25 -16.0000 92.5000 7 16 284
1965083S09130 1965 34 SI WA RUTH 1965-04-03 00:00:00 TS -15.9895 92.2881 main 1732 1732 O________OP___ jtwc_sh SH381965 -16.0000 92.3000 -1 -16.0000 92.3000 TC 25 -15.9580 92.2524 7 13 277
1965083S09130 1965 34 SI WA RUTH 1965-04-03 03:00:00 TS -15.9329 91.6316 main 1773 1773 P________PP___ SH381965 -15.9395 91.6403 -1 -15.9395 91.6403 TC 25 -15.9129 91.6053 7 12 270
1965083S09130 1965 34 SI WA RUTH 1965-04-03 06:00:00 TS -15.9918 91.0920 main 1815 1815 O________OP___ jtwc_sh SH381965 -16.0000 91.1000 -1 -16.0000 91.1000 TC 25 -15.9671 91.0680 7 10 260
1965083S09130 1965 34 SI WA RUTH 1965-04-03 09:00:00 TS -16.1185 90.5826 main 1851 1851 P________PP___ SH381965 -16.1273 90.5776 -1 -16.1273 90.5776 TC 25 -16.0919 90.5975 7 10 253
1965083S09130 1965 34 SI WA RUTH 1965-04-03 11:00:00 TS -16.2315 90.2668 main 1877 1877 P________PO___ SH381965 -16.2420 90.2558 -1 -16.2420 90.2558 TC 25 -16.2000 90.3000 7 10 249
1965083S09130 1965 34 SI WA RUTH 1965-04-03 12:00:00 TS -16.2872 90.1159 main 1898 1898 O________OP___ jtwc_sh SH381965 -16.3000 90.1000 -1 -16.3000 90.1000 TC 25 -16.2584 90.1517 7 9 249
1965083S09130 1965 34 SI MM RUTH 1965-04-03 15:00:00 TS -16.4530 89.6688 main 1940 1940 P________PP___ SH381965 -16.4577 89.6450 -1 -16.4577 89.6450 TC 25 -16.4459 89.7045 7 9 248
1965083S09130 1965 34 SI MM RUTH 1965-04-03 18:00:00 TS -16.6239 89.2272 main 1978 1978 O________OP___ jtwc_sh SH381965 -16.6000 89.2000 -1 -16.6000 89.2000 TC 25 -16.6477 89.2545 7 9 244
1965083S09130 1965 34 SI MM RUTH 1965-04-03 21:00:00 NR -16.8580 88.8023 main 2029 2029 __________P___ SH381965 -1 TC -16.8580 88.8023 7 10 242
1965083S09130 1965 34 SI MM RUTH 1965-04-03 23:00:00 NR -17.0000 88.5000 main 2057 __________O___ SH381965 -1 TC -17.0000 88.5000 1 10 244

IBTrACS Databaseについて

本データベースは、米国NOAAが公開する1842年以降の世界の熱帯低気圧のベストトラックデータアーカイブInternational Best Track Archive for Climate Stewardship (IBTrACS)を、ウェブで閲覧しやすい形式に変換したものです。

最終更新日:2021-10-27